sensor_id;sensor_type;location;lat;lon;timestamp;P1;durP1;ratioP1;P2;durP2;ratioP2
9467;SDS011;4772;52.382;9.752;2022-09-12T00:01:31;14.73;;;11.53;;
9467;SDS011;4772;52.382;9.752;2022-09-12T00:03:58;14.47;;;11.03;;
9467;SDS011;4772;52.382;9.752;2022-09-12T00:06:27;15.10;;;11.10;;
9467;SDS011;4772;52.382;9.752;2022-09-12T00:08:54;14.17;;;11.07;;
9467;SDS011;4772;52.382;9.752;2022-09-12T00:11:20;12.97;;;11.20;;
9467;SDS011;4772;52.382;9.752;2022-09-12T00:13:46;14.13;;;11.27;;
9467;SDS011;4772;52.382;9.752;2022-09-12T00:16:13;12.57;;;11.27;;
9467;SDS011;4772;52.382;9.752;2022-09-12T00:18:40;13.80;;;12.00;;
9467;SDS011;4772;52.382;9.752;2022-09-12T00:21:06;14.17;;;10.80;;
9467;SDS011;4772;52.382;9.752;2022-09-12T00:23:32;14.17;;;10.60;;
9467;SDS011;4772;52.382;9.752;2022-09-12T00:25:58;12.70;;;11.10;;
9467;SDS011;4772;52.382;9.752;2022-09-12T00:28:24;13.23;;;11.50;;
9467;SDS011;4772;52.382;9.752;2022-09-12T00:30:50;14.80;;;11.43;;
9467;SDS011;4772;52.382;9.752;2022-09-12T00:33:16;13.97;;;10.93;;
9467;SDS011;4772;52.382;9.752;2022-09-12T00:35:43;13.20;;;11.30;;
9467;SDS011;4772;52.382;9.752;2022-09-12T00:38:09;13.53;;;11.30;;
9467;SDS011;4772;52.382;9.752;2022-09-12T00:40:36;15.07;;;11.57;;
9467;SDS011;4772;52.382;9.752;2022-09-12T00:43:02;15.70;;;11.70;;
9467;SDS011;4772;52.382;9.752;2022-09-12T00:45:28;12.63;;;11.03;;
9467;SDS011;4772;52.382;9.752;2022-09-12T00:47:55;17.37;;;11.53;;
9467;SDS011;4772;52.382;9.752;2022-09-12T00:50:22;12.87;;;11.33;;
9467;SDS011;4772;52.382;9.752;2022-09-12T00:52:49;13.23;;;11.63;;
9467;SDS011;4772;52.382;9.752;2022-09-12T00:55:24;14.20;;;11.20;;
9467;SDS011;4772;52.382;9.752;2022-09-12T01:00:18;18.03;;;12.43;;
9467;SDS011;4772;52.382;9.752;2022-09-12T01:02:49;15.53;;;12.43;;
9467;SDS011;4772;52.382;9.752;2022-09-12T01:05:17;14.20;;;10.93;;
9467;SDS011;4772;52.382;9.752;2022-09-12T01:07:43;16.50;;;13.30;;
9467;SDS011;4772;52.382;9.752;2022-09-12T01:10:12;14.90;;;12.40;;
9467;SDS011;4772;52.382;9.752;2022-09-12T01:12:39;17.40;;;12.80;;
9467;SDS011;4772;52.382;9.752;2022-09-12T01:15:06;13.00;;;11.33;;
9467;SDS011;4772;52.382;9.752;2022-09-12T01:17:50;16.13;;;12.80;;
9467;SDS011;4772;52.382;9.752;2022-09-12T01:23:09;14.80;;;12.07;;
9467;SDS011;4772;52.382;9.752;2022-09-12T01:25:50;14.60;;;12.33;;
9467;SDS011;4772;52.382;9.752;2022-09-12T01:31:15;13.63;;;12.17;;
9467;SDS011;4772;52.382;9.752;2022-09-12T01:33:50;14.80;;;12.33;;
9467;SDS011;4772;52.382;9.752;2022-09-12T01:39:02;14.90;;;12.37;;
9467;SDS011;4772;52.382;9.752;2022-09-12T01:41:32;14.23;;;12.53;;
9467;SDS011;4772;52.382;9.752;2022-09-12T01:44:03;14.40;;;12.10;;
9467;SDS011;4772;52.382;9.752;2022-09-12T01:54:15;16.10;;;12.97;;
9467;SDS011;4772;52.382;9.752;2022-09-12T01:56:44;14.13;;;12.00;;
9467;SDS011;4772;52.382;9.752;2022-09-12T01:59:25;14.17;;;12.07;;
9467;SDS011;4772;52.382;9.752;2022-09-12T02:02:07;14.47;;;11.63;;
9467;SDS011;4772;52.382;9.752;2022-09-12T02:04:35;14.70;;;11.57;;
9467;SDS011;4772;52.382;9.752;2022-09-12T02:07:13;17.43;;;11.43;;
9467;SDS011;4772;52.382;9.752;2022-09-12T02:09:45;13.63;;;11.87;;
9467;SDS011;4772;52.382;9.752;2022-09-12T02:12:12;15.80;;;11.10;;
9467;SDS011;4772;52.382;9.752;2022-09-12T02:14:41;14.83;;;12.10;;
9467;SDS011;4772;52.382;9.752;2022-09-12T02:17:10;15.43;;;12.30;;
9467;SDS011;4772;52.382;9.752;2022-09-12T02:19:39;14.77;;;11.60;;
9467;SDS011;4772;52.382;9.752;2022-09-12T02:22:06;14.53;;;11.43;;
9467;SDS011;4772;52.382;9.752;2022-09-12T02:24:38;15.10;;;11.23;;
9467;SDS011;4772;52.382;9.752;2022-09-12T02:27:07;14.00;;;12.57;;
9467;SDS011;4772;52.382;9.752;2022-09-12T02:29:34;16.67;;;13.27;;
9467;SDS011;4772;52.382;9.752;2022-09-12T02:32:04;18.23;;;12.50;;
9467;SDS011;4772;52.382;9.752;2022-09-12T02:39:33;15.03;;;11.57;;
9467;SDS011;4772;52.382;9.752;2022-09-12T02:41:59;16.23;;;12.60;;
9467;SDS011;4772;52.382;9.752;2022-09-12T02:44:26;15.10;;;12.23;;
9467;SDS011;4772;52.382;9.752;2022-09-12T02:47:08;15.77;;;12.07;;
9467;SDS011;4772;52.382;9.752;2022-09-12T02:49:34;15.63;;;12.50;;
9467;SDS011;4772;52.382;9.752;2022-09-12T02:52:00;13.13;;;11.73;;
9467;SDS011;4772;52.382;9.752;2022-09-12T02:54:27;13.90;;;12.03;;
9467;SDS011;4772;52.382;9.752;2022-09-12T02:56:54;15.97;;;12.70;;
9467;SDS011;4772;52.382;9.752;2022-09-12T02:59:20;17.60;;;13.63;;
9467;SDS011;4772;52.382;9.752;2022-09-12T03:01:57;17.70;;;14.07;;
9467;SDS011;4772;52.382;9.752;2022-09-12T03:04:44;17.10;;;13.87;;
9467;SDS011;4772;52.382;9.752;2022-09-12T03:07:55;21.43;;;14.20;;
9467;SDS011;4772;52.382;9.752;2022-09-12T03:18:06;17.60;;;14.57;;
9467;SDS011;4772;52.382;9.752;2022-09-12T03:20:59;20.73;;;14.90;;
9467;SDS011;4772;52.382;9.752;2022-09-12T03:23:30;19.17;;;15.30;;
9467;SDS011;4772;52.382;9.752;2022-09-12T03:25:59;18.20;;;14.40;;
9467;SDS011;4772;52.382;9.752;2022-09-12T03:28:26;17.53;;;13.70;;
9467;SDS011;4772;52.382;9.752;2022-09-12T03:30:52;17.80;;;14.27;;
9467;SDS011;4772;52.382;9.752;2022-09-12T03:33:21;25.47;;;17.10;;
9467;SDS011;4772;52.382;9.752;2022-09-12T03:35:47;17.67;;;13.97;;
9467;SDS011;4772;52.382;9.752;2022-09-12T03:38:14;20.33;;;15.63;;
9467;SDS011;4772;52.382;9.752;2022-09-12T03:40:40;19.83;;;14.90;;
9467;SDS011;4772;52.382;9.752;2022-09-12T03:43:07;20.97;;;15.83;;
9467;SDS011;4772;52.382;9.752;2022-09-12T03:45:33;21.53;;;17.37;;
9467;SDS011;4772;52.382;9.752;2022-09-12T03:47:59;23.80;;;17.10;;
9467;SDS011;4772;52.382;9.752;2022-09-12T03:50:26;22.60;;;17.03;;
9467;SDS011;4772;52.382;9.752;2022-09-12T03:52:52;25.83;;;18.27;;
9467;SDS011;4772;52.382;9.752;2022-09-12T03:55:18;20.10;;;14.30;;
9467;SDS011;4772;52.382;9.752;2022-09-12T03:57:44;20.37;;;14.70;;
9467;SDS011;4772;52.382;9.752;2022-09-12T04:00:10;23.30;;;16.47;;
9467;SDS011;4772;52.382;9.752;2022-09-12T04:02:37;20.63;;;15.00;;
9467;SDS011;4772;52.382;9.752;2022-09-12T04:05:03;26.50;;;16.80;;
9467;SDS011;4772;52.382;9.752;2022-09-12T04:07:29;20.33;;;15.70;;
9467;SDS011;4772;52.382;9.752;2022-09-12T04:09:55;18.40;;;14.63;;
9467;SDS011;4772;52.382;9.752;2022-09-12T04:12:21;24.13;;;15.10;;
9467;SDS011;4772;52.382;9.752;2022-09-12T04:14:47;18.43;;;14.37;;
9467;SDS011;4772;52.382;9.752;2022-09-12T04:17:13;21.23;;;15.80;;
9467;SDS011;4772;52.382;9.752;2022-09-12T04:19:39;22.33;;;16.20;;
9467;SDS011;4772;52.382;9.752;2022-09-12T04:22:05;20.63;;;15.93;;
9467;SDS011;4772;52.382;9.752;2022-09-12T04:24:31;22.83;;;17.07;;
9467;SDS011;4772;52.382;9.752;2022-09-12T04:26:57;24.53;;;18.00;;
9467;SDS011;4772;52.382;9.752;2022-09-12T04:29:23;25.30;;;17.30;;
9467;SDS011;4772;52.382;9.752;2022-09-12T04:31:49;24.63;;;18.13;;
9467;SDS011;4772;52.382;9.752;2022-09-12T04:34:15;24.77;;;18.07;;
9467;SDS011;4772;52.382;9.752;2022-09-12T04:36:41;25.50;;;18.10;;
9467;SDS011;4772;52.382;9.752;2022-09-12T04:39:08;27.53;;;17.13;;
9467;SDS011;4772;52.382;9.752;2022-09-12T04:41:35;22.67;;;15.43;;
9467;SDS011;4772;52.382;9.752;2022-09-12T04:44:11;19.73;;;14.63;;
9467;SDS011;4772;52.382;9.752;2022-09-12T04:46:39;24.27;;;17.57;;
9467;SDS011;4772;52.382;9.752;2022-09-12T04:49:06;22.50;;;16.43;;
9467;SDS011;4772;52.382;9.752;2022-09-12T04:51:32;21.50;;;16.40;;
9467;SDS011;4772;52.382;9.752;2022-09-12T04:54:01;22.27;;;16.87;;
9467;SDS011;4772;52.382;9.752;2022-09-12T04:56:28;22.30;;;16.33;;
9467;SDS011;4772;52.382;9.752;2022-09-12T04:58:58;25.63;;;17.77;;
9467;SDS011;4772;52.382;9.752;2022-09-12T05:01:24;26.27;;;17.63;;
9467;SDS011;4772;52.382;9.752;2022-09-12T05:03:50;22.60;;;16.57;;
9467;SDS011;4772;52.382;9.752;2022-09-12T05:06:18;22.77;;;15.67;;
9467;SDS011;4772;52.382;9.752;2022-09-12T05:08:44;22.67;;;16.70;;
9467;SDS011;4772;52.382;9.752;2022-09-12T05:11:11;21.97;;;17.37;;
9467;SDS011;4772;52.382;9.752;2022-09-12T05:13:38;25.17;;;17.83;;
9467;SDS011;4772;52.382;9.752;2022-09-12T05:16:04;25.27;;;18.73;;
9467;SDS011;4772;52.382;9.752;2022-09-12T05:18:31;26.07;;;18.17;;
9467;SDS011;4772;52.382;9.752;2022-09-12T05:20:58;23.93;;;17.43;;
9467;SDS011;4772;52.382;9.752;2022-09-12T05:23:24;22.87;;;17.27;;
9467;SDS011;4772;52.382;9.752;2022-09-12T05:25:51;23.43;;;18.33;;
9467;SDS011;4772;52.382;9.752;2022-09-12T05:28:18;22.20;;;17.30;;
9467;SDS011;4772;52.382;9.752;2022-09-12T05:30:45;25.03;;;16.87;;
9467;SDS011;4772;52.382;9.752;2022-09-12T05:33:11;22.33;;;16.33;;
9467;SDS011;4772;52.382;9.752;2022-09-12T05:35:37;24.10;;;16.63;;
9467;SDS011;4772;52.382;9.752;2022-09-12T05:38:04;22.17;;;17.73;;
9467;SDS011;4772;52.382;9.752;2022-09-12T05:40:30;21.77;;;17.13;;
9467;SDS011;4772;52.382;9.752;2022-09-12T05:42:56;21.47;;;16.70;;
9467;SDS011;4772;52.382;9.752;2022-09-12T05:45:22;24.70;;;16.97;;
9467;SDS011;4772;52.382;9.752;2022-09-12T05:47:48;21.53;;;15.50;;
9467;SDS011;4772;52.382;9.752;2022-09-12T05:50:14;20.93;;;15.40;;
9467;SDS011;4772;52.382;9.752;2022-09-12T05:52:40;22.13;;;15.43;;
9467;SDS011;4772;52.382;9.752;2022-09-12T05:55:06;20.73;;;15.73;;
9467;SDS011;4772;52.382;9.752;2022-09-12T05:57:32;19.83;;;14.87;;
9467;SDS011;4772;52.382;9.752;2022-09-12T05:59:58;19.97;;;15.87;;
9467;SDS011;4772;52.382;9.752;2022-09-12T06:02:25;20.00;;;14.20;;
9467;SDS011;4772;52.382;9.752;2022-09-12T06:04:51;20.23;;;15.23;;
9467;SDS011;4772;52.382;9.752;2022-09-12T06:07:17;18.67;;;14.73;;
9467;SDS011;4772;52.382;9.752;2022-09-12T06:09:43;19.83;;;15.77;;
9467;SDS011;4772;52.382;9.752;2022-09-12T06:12:09;19.53;;;14.90;;
9467;SDS011;4772;52.382;9.752;2022-09-12T06:14:35;19.90;;;15.10;;
9467;SDS011;4772;52.382;9.752;2022-09-12T06:17:02;18.00;;;14.20;;
9467;SDS011;4772;52.382;9.752;2022-09-12T06:19:29;18.50;;;14.10;;
9467;SDS011;4772;52.382;9.752;2022-09-12T06:21:55;19.50;;;14.47;;
9467;SDS011;4772;52.382;9.752;2022-09-12T06:24:21;16.60;;;13.33;;
9467;SDS011;4772;52.382;9.752;2022-09-12T06:26:48;20.60;;;13.80;;
9467;SDS011;4772;52.382;9.752;2022-09-12T06:29:16;19.33;;;13.87;;
9467;SDS011;4772;52.382;9.752;2022-09-12T06:31:43;19.17;;;13.27;;
9467;SDS011;4772;52.382;9.752;2022-09-12T06:34:10;17.10;;;13.13;;
9467;SDS011;4772;52.382;9.752;2022-09-12T06:36:42;17.10;;;13.30;;
9467;SDS011;4772;52.382;9.752;2022-09-12T06:39:12;14.43;;;12.00;;
9467;SDS011;4772;52.382;9.752;2022-09-12T06:41:39;15.23;;;12.07;;
9467;SDS011;4772;52.382;9.752;2022-09-12T06:44:05;23.03;;;18.70;;
9467;SDS011;4772;52.382;9.752;2022-09-12T06:46:31;16.33;;;11.70;;
9467;SDS011;4772;52.382;9.752;2022-09-12T06:48:57;15.90;;;11.60;;
9467;SDS011;4772;52.382;9.752;2022-09-12T06:51:24;12.77;;;11.10;;
9467;SDS011;4772;52.382;9.752;2022-09-12T06:53:53;13.83;;;10.87;;
9467;SDS011;4772;52.382;9.752;2022-09-12T06:56:20;13.23;;;10.47;;
9467;SDS011;4772;52.382;9.752;2022-09-12T06:58:47;14.03;;;10.83;;
9467;SDS011;4772;52.382;9.752;2022-09-12T07:01:17;13.63;;;10.57;;
9467;SDS011;4772;52.382;9.752;2022-09-12T07:03:47;12.13;;;10.20;;
9467;SDS011;4772;52.382;9.752;2022-09-12T07:06:15;13.20;;;10.37;;
9467;SDS011;4772;52.382;9.752;2022-09-12T07:08:42;11.40;;;9.80;;
9467;SDS011;4772;52.382;9.752;2022-09-12T07:11:09;10.57;;;9.47;;
9467;SDS011;4772;52.382;9.752;2022-09-12T07:13:36;10.63;;;9.63;;
9467;SDS011;4772;52.382;9.752;2022-09-12T07:16:05;11.60;;;10.40;;
9467;SDS011;4772;52.382;9.752;2022-09-12T07:18:34;11.43;;;9.65;;
9467;SDS011;4772;52.382;9.752;2022-09-12T07:21:02;12.40;;;9.95;;
9467;SDS011;4772;52.382;9.752;2022-09-12T07:23:28;11.73;;;9.65;;
9467;SDS011;4772;52.382;9.752;2022-09-12T07:25:55;11.23;;;9.57;;
9467;SDS011;4772;52.382;9.752;2022-09-12T07:28:22;10.77;;;9.18;;
9467;SDS011;4772;52.382;9.752;2022-09-12T07:30:48;11.95;;;9.70;;
9467;SDS011;4772;52.382;9.752;2022-09-12T07:33:15;10.88;;;9.65;;
9467;SDS011;4772;52.382;9.752;2022-09-12T07:35:41;11.30;;;9.77;;
9467;SDS011;4772;52.382;9.752;2022-09-12T07:38:07;11.23;;;10.02;;
9467;SDS011;4772;52.382;9.752;2022-09-12T07:40:33;11.70;;;10.25;;
9467;SDS011;4772;52.382;9.752;2022-09-12T07:42:59;11.05;;;9.82;;
9467;SDS011;4772;52.382;9.752;2022-09-12T07:45:25;11.18;;;10.05;;
9467;SDS011;4772;52.382;9.752;2022-09-12T07:47:54;10.90;;;9.80;;
9467;SDS011;4772;52.382;9.752;2022-09-12T07:50:20;11.50;;;9.57;;
9467;SDS011;4772;52.382;9.752;2022-09-12T07:52:46;12.02;;;9.50;;
9467;SDS011;4772;52.382;9.752;2022-09-12T07:55:12;10.75;;;9.65;;
9467;SDS011;4772;52.382;9.752;2022-09-12T07:57:38;11.90;;;10.65;;
9467;SDS011;4772;52.382;9.752;2022-09-12T08:00:04;12.15;;;10.68;;
9467;SDS011;4772;52.382;9.752;2022-09-12T08:02:33;11.03;;;9.90;;
9467;SDS011;4772;52.382;9.752;2022-09-12T08:04:59;11.40;;;9.63;;
9467;SDS011;4772;52.382;9.752;2022-09-12T08:07:26;11.82;;;9.55;;
9467;SDS011;4772;52.382;9.752;2022-09-12T08:09:52;9.70;;;8.77;;
9467;SDS011;4772;52.382;9.752;2022-09-12T08:12:18;11.13;;;8.63;;
9467;SDS011;4772;52.382;9.752;2022-09-12T08:14:44;11.00;;;8.50;;
9467;SDS011;4772;52.382;9.752;2022-09-12T08:17:10;9.00;;;8.07;;
9467;SDS011;4772;52.382;9.752;2022-09-12T08:19:38;9.15;;;7.10;;
9467;SDS011;4772;52.382;9.752;2022-09-12T08:22:04;8.30;;;7.50;;
9467;SDS011;4772;52.382;9.752;2022-09-12T08:24:30;8.63;;;7.82;;
9467;SDS011;4772;52.382;9.752;2022-09-12T08:26:56;8.35;;;7.57;;
9467;SDS011;4772;52.382;9.752;2022-09-12T08:29:22;9.50;;;8.00;;
9467;SDS011;4772;52.382;9.752;2022-09-12T08:31:48;9.95;;;7.50;;
9467;SDS011;4772;52.382;9.752;2022-09-12T08:34:14;8.20;;;7.32;;
9467;SDS011;4772;52.382;9.752;2022-09-12T08:36:42;7.60;;;6.72;;
9467;SDS011;4772;52.382;9.752;2022-09-12T08:39:10;7.28;;;6.55;;
9467;SDS011;4772;52.382;9.752;2022-09-12T08:41:38;9.30;;;7.43;;
9467;SDS011;4772;52.382;9.752;2022-09-12T08:49:19;11.32;;;8.35;;
9467;SDS011;4772;52.382;9.752;2022-09-12T08:51:48;7.97;;;7.03;;
9467;SDS011;4772;52.382;9.752;2022-09-12T08:54:22;9.45;;;7.10;;
9467;SDS011;4772;52.382;9.752;2022-09-12T08:56:48;8.40;;;7.63;;
9467;SDS011;4772;52.382;9.752;2022-09-12T08:59:15;9.13;;;7.30;;
9467;SDS011;4772;52.382;9.752;2022-09-12T09:01:42;10.05;;;7.47;;
9467;SDS011;4772;52.382;9.752;2022-09-12T09:09:24;9.85;;;6.72;;
9467;SDS011;4772;52.382;9.752;2022-09-12T09:12:06;8.10;;;7.30;;
9467;SDS011;4772;52.382;9.752;2022-09-12T09:14:42;6.85;;;6.25;;
9467;SDS011;4772;52.382;9.752;2022-09-12T09:17:33;8.05;;;6.85;;
9467;SDS011;4772;52.382;9.752;2022-09-12T09:25:25;6.22;;;5.63;;
9467;SDS011;4772;52.382;9.752;2022-09-12T09:27:58;6.60;;;4.95;;
9467;SDS011;4772;52.382;9.752;2022-09-12T09:30:26;7.63;;;5.05;;
9467;SDS011;4772;52.382;9.752;2022-09-12T09:32:57;5.30;;;4.78;;
9467;SDS011;4772;52.382;9.752;2022-09-12T09:37:59;6.75;;;5.28;;
9467;SDS011;4772;52.382;9.752;2022-09-12T09:40:29;7.25;;;6.07;;
9467;SDS011;4772;52.382;9.752;2022-09-12T09:45:29;7.80;;;6.43;;
9467;SDS011;4772;52.382;9.752;2022-09-12T09:50:25;6.47;;;5.70;;
9467;SDS011;4772;52.382;9.752;2022-09-12T09:52:51;8.30;;;5.30;;
9467;SDS011;4772;52.382;9.752;2022-09-12T09:55:19;6.18;;;5.32;;
9467;SDS011;4772;52.382;9.752;2022-09-12T09:57:47;5.85;;;5.03;;
9467;SDS011;4772;52.382;9.752;2022-09-12T10:00:30;5.18;;;4.68;;
9467;SDS011;4772;52.382;9.752;2022-09-12T10:03:01;6.40;;;5.50;;
9467;SDS011;4772;52.382;9.752;2022-09-12T10:05:28;6.45;;;5.00;;
9467;SDS011;4772;52.382;9.752;2022-09-12T10:07:55;6.18;;;5.55;;
9467;SDS011;4772;52.382;9.752;2022-09-12T10:10:21;6.45;;;5.35;;
9467;SDS011;4772;52.382;9.752;2022-09-12T10:12:47;6.20;;;5.53;;
9467;SDS011;4772;52.382;9.752;2022-09-12T10:15:31;6.05;;;4.90;;
9467;SDS011;4772;52.382;9.752;2022-09-12T10:17:58;5.93;;;5.13;;
9467;SDS011;4772;52.382;9.752;2022-09-12T10:20:34;9.63;;;5.45;;
9467;SDS011;4772;52.382;9.752;2022-09-12T10:23:06;5.93;;;5.40;;
9467;SDS011;4772;52.382;9.752;2022-09-12T10:25:40;6.28;;;5.50;;
9467;SDS011;4772;52.382;9.752;2022-09-12T10:28:12;5.88;;;5.35;;
9467;SDS011;4772;52.382;9.752;2022-09-12T10:30:50;6.75;;;4.82;;
9467;SDS011;4772;52.382;9.752;2022-09-12T10:33:16;4.97;;;4.50;;
9467;SDS011;4772;52.382;9.752;2022-09-12T10:35:44;6.05;;;4.68;;
9467;SDS011;4772;52.382;9.752;2022-09-12T10:38:44;5.20;;;4.70;;
9467;SDS011;4772;52.382;9.752;2022-09-12T10:41:04;7.32;;;4.40;;
9467;SDS011;4772;52.382;9.752;2022-09-12T10:43:38;4.00;;;3.60;;
9467;SDS011;4772;52.382;9.752;2022-09-12T10:48:40;3.08;;;2.72;;
9467;SDS011;4772;52.382;9.752;2022-09-12T10:51:10;3.95;;;2.95;;
9467;SDS011;4772;52.382;9.752;2022-09-12T10:53:40;3.38;;;3.08;;
9467;SDS011;4772;52.382;9.752;2022-09-12T11:01:43;3.10;;;2.80;;
9467;SDS011;4772;52.382;9.752;2022-09-12T11:04:21;5.10;;;2.50;;
9467;SDS011;4772;52.382;9.752;2022-09-12T11:14:12;2.75;;;2.55;;
9467;SDS011;4772;52.382;9.752;2022-09-12T11:22:18;2.35;;;2.15;;
9467;SDS011;4772;52.382;9.752;2022-09-12T11:29:48;3.08;;;2.30;;
9467;SDS011;4772;52.382;9.752;2022-09-12T11:35:03;2.78;;;1.83;;
9467;SDS011;4772;52.382;9.752;2022-09-12T11:37:35;2.92;;;1.80;;
9467;SDS011;4772;52.382;9.752;2022-09-12T11:43:02;1.90;;;1.75;;
9467;SDS011;4772;52.382;9.752;2022-09-12T11:45:33;2.67;;;1.67;;
9467;SDS011;4772;52.382;9.752;2022-09-12T11:48:03;1.77;;;1.67;;
9467;SDS011;4772;52.382;9.752;2022-09-12T11:50:31;2.40;;;1.90;;
9467;SDS011;4772;52.382;9.752;2022-09-12T11:53:04;2.95;;;1.60;;
9467;SDS011;4772;52.382;9.752;2022-09-12T11:55:42;1.80;;;1.70;;
9467;SDS011;4772;52.382;9.752;2022-09-12T11:58:12;2.00;;;1.80;;
9467;SDS011;4772;52.382;9.752;2022-09-12T12:00:40;1.95;;;1.77;;
9467;SDS011;4772;52.382;9.752;2022-09-12T12:03:13;3.63;;;1.85;;
9467;SDS011;4772;52.382;9.752;2022-09-12T12:08:11;2.38;;;1.95;;
9467;SDS011;4772;52.382;9.752;2022-09-12T12:13:13;2.15;;;1.90;;
9467;SDS011;4772;52.382;9.752;2022-09-12T12:15:46;3.30;;;1.85;;
9467;SDS011;4772;52.382;9.752;2022-09-12T12:18:16;3.28;;;2.15;;
9467;SDS011;4772;52.382;9.752;2022-09-12T12:20:44;2.40;;;2.13;;
9467;SDS011;4772;52.382;9.752;2022-09-12T12:23:28;3.67;;;2.40;;
9467;SDS011;4772;52.382;9.752;2022-09-12T12:31:05;2.28;;;2.08;;
9467;SDS011;4772;52.382;9.752;2022-09-12T12:41:56;3.15;;;2.10;;
9467;SDS011;4772;52.382;9.752;2022-09-12T12:43:51;2.40;;;2.15;;
9467;SDS011;4772;52.382;9.752;2022-09-12T12:46:20;2.45;;;2.10;;
9467;SDS011;4772;52.382;9.752;2022-09-12T12:51:30;3.63;;;2.17;;
9467;SDS011;4772;52.382;9.752;2022-09-12T12:53:57;3.17;;;2.47;;
9467;SDS011;4772;52.382;9.752;2022-09-12T12:56:28;2.50;;;2.30;;
9467;SDS011;4772;52.382;9.752;2022-09-12T12:58:57;4.88;;;2.47;;
9467;SDS011;4772;52.382;9.752;2022-09-12T13:01:24;2.88;;;2.55;;
9467;SDS011;4772;52.382;9.752;2022-09-12T13:03:54;2.42;;;2.22;;
9467;SDS011;4772;52.382;9.752;2022-09-12T13:11:44;3.28;;;2.80;;
9467;SDS011;4772;52.382;9.752;2022-09-12T13:16:57;4.70;;;2.97;;
9467;SDS011;4772;52.382;9.752;2022-09-12T13:19:28;3.63;;;3.08;;
9467;SDS011;4772;52.382;9.752;2022-09-12T13:21:55;3.30;;;3.00;;
9467;SDS011;4772;52.382;9.752;2022-09-12T13:24:21;3.97;;;2.50;;
9467;SDS011;4772;52.382;9.752;2022-09-12T13:26:48;2.60;;;2.30;;
9467;SDS011;4772;52.382;9.752;2022-09-12T13:29:18;2.42;;;2.22;;
9467;SDS011;4772;52.382;9.752;2022-09-12T13:31:45;5.70;;;2.90;;
9467;SDS011;4772;52.382;9.752;2022-09-12T13:34:14;3.78;;;2.03;;
9467;SDS011;4772;52.382;9.752;2022-09-12T13:36:51;3.25;;;2.38;;
9467;SDS011;4772;52.382;9.752;2022-09-12T13:45:31;4.85;;;2.55;;
9467;SDS011;4772;52.382;9.752;2022-09-12T13:47:37;2.60;;;2.40;;
9467;SDS011;4772;52.382;9.752;2022-09-12T13:50:06;2.78;;;2.58;;
9467;SDS011;4772;52.382;9.752;2022-09-12T13:52:33;2.95;;;2.22;;
9467;SDS011;4772;52.382;9.752;2022-09-12T13:55:01;2.53;;;2.30;;
9467;SDS011;4772;52.382;9.752;2022-09-12T13:57:32;2.80;;;2.30;;
9467;SDS011;4772;52.382;9.752;2022-09-12T13:59:58;3.28;;;1.90;;
9467;SDS011;4772;52.382;9.752;2022-09-12T14:02:26;2.28;;;2.08;;
9467;SDS011;4772;52.382;9.752;2022-09-12T14:04:53;2.20;;;2.00;;
9467;SDS011;4772;52.382;9.752;2022-09-12T14:07:33;3.45;;;2.10;;
9467;SDS011;4772;52.382;9.752;2022-09-12T14:10:04;2.97;;;2.15;;
9467;SDS011;4772;52.382;9.752;2022-09-12T14:12:35;2.30;;;2.10;;
9467;SDS011;4772;52.382;9.752;2022-09-12T14:15:04;3.13;;;2.00;;
9467;SDS011;4772;52.382;9.752;2022-09-12T14:17:34;4.10;;;2.00;;
9467;SDS011;4772;52.382;9.752;2022-09-12T14:20:02;3.55;;;2.15;;
9467;SDS011;4772;52.382;9.752;2022-09-12T14:22:34;2.35;;;2.15;;
9467;SDS011;4772;52.382;9.752;2022-09-12T14:25:02;2.90;;;2.20;;
9467;SDS011;4772;52.382;9.752;2022-09-12T14:27:35;2.83;;;1.80;;
9467;SDS011;4772;52.382;9.752;2022-09-12T14:30:04;1.83;;;1.70;;
9467;SDS011;4772;52.382;9.752;2022-09-12T14:32:32;2.28;;;1.73;;
9467;SDS011;4772;52.382;9.752;2022-09-12T14:35:02;1.90;;;1.70;;
9467;SDS011;4772;52.382;9.752;2022-09-12T14:37:29;2.17;;;1.95;;
9467;SDS011;4772;52.382;9.752;2022-09-12T14:39:55;1.80;;;1.70;;
9467;SDS011;4772;52.382;9.752;2022-09-12T14:42:21;2.03;;;1.90;;
9467;SDS011;4772;52.382;9.752;2022-09-12T14:44:53;3.53;;;2.05;;
9467;SDS011;4772;52.382;9.752;2022-09-12T14:47:22;2.25;;;1.80;;
9467;SDS011;4772;52.382;9.752;2022-09-12T14:49:49;3.85;;;1.92;;
9467;SDS011;4772;52.382;9.752;2022-09-12T14:54:57;4.15;;;1.73;;
9467;SDS011;4772;52.382;9.752;2022-09-12T14:59:52;2.50;;;2.30;;
9467;SDS011;4772;52.382;9.752;2022-09-12T15:02:29;2.78;;;2.10;;
9467;SDS011;4772;52.382;9.752;2022-09-12T15:07:42;2.25;;;2.03;;
9467;SDS011;4772;52.382;9.752;2022-09-12T15:10:28;1.92;;;1.70;;
9467;SDS011;4772;52.382;9.752;2022-09-12T15:15:30;2.50;;;2.15;;
9467;SDS011;4772;52.382;9.752;2022-09-12T15:17:56;2.25;;;2.10;;
9467;SDS011;4772;52.382;9.752;2022-09-12T15:20:22;2.25;;;2.05;;
9467;SDS011;4772;52.382;9.752;2022-09-12T15:22:48;2.42;;;2.20;;
9467;SDS011;4772;52.382;9.752;2022-09-12T15:25:15;2.50;;;2.30;;
9467;SDS011;4772;52.382;9.752;2022-09-12T15:27:42;2.30;;;2.10;;
9467;SDS011;4772;52.382;9.752;2022-09-12T15:30:08;2.40;;;2.20;;
9467;SDS011;4772;52.382;9.752;2022-09-12T15:32:36;2.10;;;1.90;;
9467;SDS011;4772;52.382;9.752;2022-09-12T15:35:02;3.20;;;2.17;;
9467;SDS011;4772;52.382;9.752;2022-09-12T15:37:28;2.40;;;2.10;;
9467;SDS011;4772;52.382;9.752;2022-09-12T15:39:55;2.42;;;2.22;;
9467;SDS011;4772;52.382;9.752;2022-09-12T15:42:23;2.40;;;2.20;;
9467;SDS011;4772;52.382;9.752;2022-09-12T15:44:55;2.63;;;1.90;;
9467;SDS011;4772;52.382;9.752;2022-09-12T15:47:21;2.00;;;1.90;;
9467;SDS011;4772;52.382;9.752;2022-09-12T15:49:47;4.10;;;2.17;;
9467;SDS011;4772;52.382;9.752;2022-09-12T15:52:14;4.43;;;2.23;;
9467;SDS011;4772;52.382;9.752;2022-09-12T15:54:41;2.50;;;2.30;;
9467;SDS011;4772;52.382;9.752;2022-09-12T15:57:07;2.57;;;2.30;;
9467;SDS011;4772;52.382;9.752;2022-09-12T15:59:33;2.30;;;2.10;;
9467;SDS011;4772;52.382;9.752;2022-09-12T16:01:59;2.33;;;2.13;;
9467;SDS011;4772;52.382;9.752;2022-09-12T16:04:27;3.60;;;2.27;;
9467;SDS011;4772;52.382;9.752;2022-09-12T16:06:54;1.90;;;1.80;;
9467;SDS011;4772;52.382;9.752;2022-09-12T16:09:20;2.80;;;2.10;;
9467;SDS011;4772;52.382;9.752;2022-09-12T16:11:46;2.40;;;2.20;;
9467;SDS011;4772;52.382;9.752;2022-09-12T16:14:16;2.73;;;2.33;;
9467;SDS011;4772;52.382;9.752;2022-09-12T16:16:43;2.10;;;2.00;;
9467;SDS011;4772;52.382;9.752;2022-09-12T16:19:09;2.37;;;1.90;;
9467;SDS011;4772;52.382;9.752;2022-09-12T16:21:36;2.23;;;2.10;;
9467;SDS011;4772;52.382;9.752;2022-09-12T16:24:02;2.00;;;1.90;;
9467;SDS011;4772;52.382;9.752;2022-09-12T16:26:28;2.20;;;2.00;;
9467;SDS011;4772;52.382;9.752;2022-09-12T16:28:55;2.13;;;1.90;;
9467;SDS011;4772;52.382;9.752;2022-09-12T16:31:21;2.23;;;2.00;;
9467;SDS011;4772;52.382;9.752;2022-09-12T16:33:47;2.10;;;1.90;;
9467;SDS011;4772;52.382;9.752;2022-09-12T16:36:15;3.30;;;1.93;;
9467;SDS011;4772;52.382;9.752;2022-09-12T16:38:48;2.87;;;2.00;;
9467;SDS011;4772;52.382;9.752;2022-09-12T16:41:15;3.37;;;2.30;;
9467;SDS011;4772;52.382;9.752;2022-09-12T16:43:41;3.30;;;1.90;;
9467;SDS011;4772;52.382;9.752;2022-09-12T16:46:08;3.50;;;2.30;;
9467;SDS011;4772;52.382;9.752;2022-09-12T16:48:35;2.63;;;2.20;;
9467;SDS011;4772;52.382;9.752;2022-09-12T16:51:04;2.60;;;2.07;;
9467;SDS011;4772;52.382;9.752;2022-09-12T16:53:36;3.77;;;2.70;;
9467;SDS011;4772;52.382;9.752;2022-09-12T16:56:06;2.43;;;2.23;;
9467;SDS011;4772;52.382;9.752;2022-09-12T16:58:33;4.47;;;2.50;;
9467;SDS011;4772;52.382;9.752;2022-09-12T17:01:00;4.90;;;3.40;;
9467;SDS011;4772;52.382;9.752;2022-09-12T17:03:26;2.53;;;2.30;;
9467;SDS011;4772;52.382;9.752;2022-09-12T17:05:59;3.23;;;2.10;;
9467;SDS011;4772;52.382;9.752;2022-09-12T17:08:26;4.73;;;2.30;;
9467;SDS011;4772;52.382;9.752;2022-09-12T17:10:57;3.67;;;2.40;;
9467;SDS011;4772;52.382;9.752;2022-09-12T17:13:24;3.37;;;2.53;;
9467;SDS011;4772;52.382;9.752;2022-09-12T17:15:49;7.27;;;2.40;;
9467;SDS011;4772;52.382;9.752;2022-09-12T17:18:15;4.40;;;2.60;;
9467;SDS011;4772;52.382;9.752;2022-09-12T17:20:42;6.37;;;2.50;;
9467;SDS011;4772;52.382;9.752;2022-09-12T17:23:08;3.53;;;2.50;;